Time;durP1;ratioP1;P1;durP2;ratioP2;P2;SDS_P1;SDS_P2;PMS_P1;PMS_P2;Temp;Humidity;BMP_temperature;BMP_pressure;BME280_temperature;BME280_humidity;BME280_pressure;Samples;Min_cycle;Max_cycle;Signal;HPM_P1;HPM_P2
2022/08/09 00:02:41;;;;;;;;;7.25;7.25;;;;;28.15;40.14;100660.91;146605;573;46014;-70
2022/08/09 00:05:33;;;;;;;;;5.25;5.25;;;;;28.18;40.09;100659.03;146605;658;46012;-70
2022/08/09 00:08:28;;;;;;;;;9.25;8.25;;;;;28.18;40.36;100656.38;146609;571;46010;-71
2022/08/09 00:11:31;;;;;;;;;5.50;5.25;;;;;28.20;40.35;100653.69;146604;694;46016;-68
2022/08/09 00:14:29;;;;;;;;;10.00;7.00;;;;;28.19;40.16;100650.13;146608;573;46010;-68
2022/08/09 00:17:23;;;;;;;;;8.00;7.00;;;;;28.24;39.75;100655.38;146606;665;46013;-68
2022/08/09 00:20:18;;;;;;;;;7.00;6.25;;;;;27.89;39.65;100590.41;146608;590;46020;-68
2022/08/09 00:23:11;;;;;;;;;5.75;5.75;;;;;28.24;39.67;100645.56;146606;601;47012;-69
2022/08/09 00:26:05;;;;;;;;;6.50;6.50;;;;;28.20;39.89;100637.69;146607;577;46020;-68
2022/08/09 00:29:04;;;;;;;;;6.50;6.25;;;;;28.18;39.97;100650.16;146604;591;46016;-68
2022/08/09 00:31:59;;;;;;;;;6.00;6.00;;;;;28.19;39.75;100649.25;146608;651;46020;-69
2022/08/09 00:34:51;;;;;;;;;7.25;7.25;;;;;28.19;40.12;100652.78;146604;586;46016;-69
2022/08/09 00:37:49;;;;;;;;;6.00;6.00;;;;;28.19;40.11;100650.13;146607;706;46020;-69
2022/08/09 00:40:52;;;;;;;;;6.00;6.00;;;;;28.19;40.04;100652.78;146605;690;46016;-70
2022/08/09 00:43:50;;;;;;;;;9.50;8.00;;;;;28.18;40.34;100650.16;146611;565;46010;-72
2022/08/09 00:46:46;;;;;;;;;7.00;6.75;;;;;28.17;40.22;100648.44;146604;644;46922;-70
2022/08/09 00:49:48;;;;;;;;;6.75;6.25;;;;;28.13;40.17;100650.28;146607;595;46020;-71
2022/08/09 00:52:46;;;;;;;;;5.25;5.25;;;;;28.08;40.19;100639.72;146603;564;46017;-71
2022/08/09 00:55:43;;;;;;;;;6.75;6.00;;;;;28.09;40.85;100636.13;146606;569;46010;-71
2022/08/09 00:58:37;;;;;;;;;7.50;7.00;;;;;28.16;41.59;100636.84;146604;672;47012;-70
2022/08/09 01:01:40;;;;;;;;;7.00;6.25;;;;;28.22;43.34;100628.72;146607;611;46014;-70
2022/08/09 01:05:12;;;;;;;;;8.00;6.25;;;;;27.35;41.93;100469.03;146605;572;46922;-70
2022/08/09 01:08:44;;;;;;;;;6.00;6.00;;;;;28.37;41.84;100643.50;146606;573;46011;-70
2022/08/09 01:12:08;;;;;;;;;8.00;7.00;;;;;28.43;41.92;100638.06;146603;687;46033;-72
2022/08/09 01:15:16;;;;;;;;;5.75;5.50;;;;;28.51;42.08;100629.87;146607;575;46010;-70
2022/08/09 01:18:30;;;;;;;;;6.25;6.25;;;;;28.55;42.37;100637.75;146604;575;46016;-73
2022/08/09 01:22:03;;;;;;;;;6.50;6.25;;;;;27.45;43.01;100437.75;146608;706;46020;-71
2022/08/09 01:25:34;;;;;;;;;6.75;6.25;;;;;28.57;42.45;100627.06;146606;575;46012;-71
2022/08/09 01:28:41;;;;;;;;;7.00;7.00;;;;;28.56;43.66;100643.97;146608;702;46012;-71
2022/08/09 01:31:45;;;;;;;;;7.00;7.00;;;;;28.55;43.99;100640.41;146603;684;46016;-71
2022/08/09 01:34:41;;;;;;;;;8.00;7.50;;;;;28.51;44.45;100633.41;146605;624;46020;-70
2022/08/09 01:37:37;;;;;;;;;7.25;7.25;;;;;28.48;43.96;100641.50;146605;578;47013;-70
2022/08/09 01:40:48;;;;;;;;;;;;;;;;;;;;;
2022/08/09 01:43:54;;;;;;;;;6.75;6.75;;;;;28.46;43.45;100635.31;146602;641;47018;-70
2022/08/09 01:46:54;;;;;;;;;7.25;6.00;;;;;28.41;44.37;100642.56;146606;658;46020;-71
2022/08/09 01:49:58;;;;;;;;;6.25;5.75;;;;;28.37;43.83;100646.16;146608;673;46012;-69
2022/08/09 01:53:01;;;;;;;;;12.00;7.25;;;;;28.39;42.77;100638.13;146606;572;46021;-68
2022/08/09 01:56:11;;;;;;;;;9.00;9.00;;;;;28.41;44.04;100639.00;146602;685;46016;-69
2022/08/09 01:59:15;;;;;;;;;6.75;6.00;;;;;28.38;44.88;100633.69;146609;651;46010;-70
2022/08/09 02:02:20;;;;;;;;;;;;;;;;;;;;;
2022/08/09 02:05:25;;;;;;;;;9.25;8.00;;;;;28.27;43.83;100629.50;146605;735;46020;-71
2022/08/09 02:08:23;;;;;;;;;10.00;8.75;;;;;28.27;43.14;100634.84;146608;571;46012;-70
2022/08/09 02:11:20;;;;;;;;;7.00;6.50;;;;;28.26;43.90;100632.22;146603;640;46020;-69
2022/08/09 02:14:18;;;;;;;;;8.00;8.00;;;;;28.20;44.45;100637.69;146601;610;46017;-70
2022/08/09 02:17:22;;;;;;;;;8.00;7.50;;;;;28.14;44.03;100637.84;146605;703;46020;-71
2022/08/09 02:20:23;;;;;;;;;6.25;6.00;;;;;28.11;42.94;100638.78;146604;691;47012;-71
2022/08/09 02:23:57;;;;;;;;;9.50;8.00;;;;;28.09;41.87;100636.13;146610;569;46010;-71
2022/08/09 02:27:12;;;;;;;;;6.50;6.25;;;;;28.04;41.82;100642.50;146601;687;47012;-71
2022/08/09 02:30:24;;;;;;;;;7.00;6.75;;;;;27.92;42.23;100638.31;146604;694;46021;-71
2022/08/09 02:33:26;;;;;;;;;7.25;5.75;;;;;27.72;42.45;100645.78;146604;604;46016;-72
2022/08/09 02:36:52;;;;;;;;;6.00;6.00;;;;;26.50;42.00;100463.63;146608;634;46011;-71
2022/08/09 02:39:57;;;;;;;;;7.00;6.50;;;;;27.32;42.49;100641.25;146603;642;46016;-72
2022/08/09 02:42:59;;;;;;;;;7.50;7.50;;;;;27.17;42.72;100635.34;146607;622;46010;-72
2022/08/09 02:45:56;;;;;;;;;7.00;4.50;;;;;27.08;43.41;100646.09;146604;616;46923;-72
2022/08/09 02:48:55;;;;;;;;;7.50;6.25;;;;;26.99;43.49;100637.41;146606;691;46030;-72
2022/08/09 02:51:54;;;;;;;;;7.00;6.00;;;;;26.90;43.83;100638.44;146605;564;46016;-71
2022/08/09 02:54:53;;;;;;;;;10.00;8.00;;;;;26.91;44.24;100637.53;146608;640;46020;-71
2022/08/09 02:57:53;;;;;;;;;5.00;5.00;;;;;26.97;44.80;100641.88;146605;613;46016;-69
2022/08/09 03:00:48;;;;;;;;;9.00;7.75;;;;;27.05;46.05;100651.50;146607;608;46010;-70
2022/08/09 03:03:53;;;;;;;;;7.50;7.50;;;;;27.13;45.48;100657.56;146603;610;46012;-69
2022/08/09 03:06:50;;;;;;;;;8.25;8.25;;;;;27.16;45.68;100654.84;146608;718;46010;-70
2022/08/09 03:09:51;;;;;;;;;8.25;7.25;;;;;27.10;45.22;100654.06;146604;650;46920;-71
2022/08/09 03:12:46;;;;;;;;;8.75;8.50;;;;;27.05;46.02;100651.50;146607;601;46021;-69
2022/08/09 03:15:42;;;;;;;;;9.00;8.75;;;;;27.02;45.63;100658.66;146605;628;46921;-71
2022/08/09 03:18:42;;;;;;;;;8.00;7.00;;;;;26.96;46.29;100664.94;146607;564;46020;-69
2022/08/09 03:21:41;;;;;;;;;10.50;9.75;;;;;26.92;46.51;100666.78;146604;576;46013;-68
2022/08/09 03:24:36;;;;;;;;;8.00;6.00;;;;;26.91;46.93;100661.47;146607;657;46010;-70
2022/08/09 03:27:33;;;;;;;;;9.75;8.00;;;;;26.94;47.27;100669.41;146625;660;45921;-71
2022/08/09 03:30:33;;;;;;;;;9.50;8.50;;;;;26.90;46.74;100668.59;146630;659;45029;-70
2022/08/09 03:33:41;;;;;;;;;9.50;8.00;;;;;26.83;45.38;100668.72;146627;698;45920;-69
2022/08/09 03:36:35;;;;;;;;;8.75;8.75;;;;;26.85;46.92;100672.22;146626;595;45029;-69
2022/08/09 03:39:29;;;;;;;;;8.50;8.25;;;;;26.88;47.55;100677.50;146627;582;46012;-70
2022/08/09 03:42:34;;;;;;;;;;;;;;;;;;;;;
2022/08/09 03:45:35;;;;;;;;;9.00;7.50;;;;;26.89;46.79;100673.94;146621;625;47010;-71
2022/08/09 03:48:33;;;;;;;;;8.50;8.50;;;;;26.83;47.21;100680.25;146629;609;45020;-69
2022/08/09 03:51:38;;;;;;;;;9.00;8.25;;;;;26.78;47.77;100675.91;146625;569;45921;-69
2022/08/09 03:54:40;;;;;;;;;9.00;7.50;;;;;26.71;46.28;100677.78;146630;563;45020;-70
2022/08/09 03:57:49;;;;;;;;;7.00;7.00;;;;;26.61;45.53;100679.72;146624;642;45921;-69
2022/08/09 04:01:08;;;;;;;;;9.25;8.00;;;;;26.56;45.94;100675.34;146628;664;46010;-69
2022/08/09 04:04:04;;;;;;;;;8.75;8.75;;;;;26.52;46.37;100685.16;146628;711;45016;-69
2022/08/09 04:06:59;;;;;;;;;10.00;9.25;;;;;26.47;46.71;100686.97;146628;587;45021;-69
2022/08/09 04:09:53;;;;;;;;;8.50;7.75;;;;;26.44;46.96;100681.69;146624;580;45920;-69
2022/08/09 04:13:08;;;;;;;;;7.25;7.25;;;;;25.42;46.19;100511.28;146627;599;45020;-70
2022/08/09 04:16:10;;;;;;;;;9.00;8.00;;;;;26.38;47.54;100682.66;146623;660;46014;-72
2022/08/09 04:19:02;;;;;;;;;10.50;9.50;;;;;26.36;48.41;100689.81;146628;685;45020;-71
2022/08/09 04:22:01;;;;;;;;;11.00;10.75;;;;;26.38;48.39;100684.44;146627;630;46012;-71
2022/08/09 04:25:03;;;;;;;;;9.00;8.00;;;;;26.38;49.71;100687.97;146629;648;45014;-70
2022/08/09 04:28:00;;;;;;;;;10.25;9.75;;;;;26.42;49.74;100703.00;146624;618;45921;-71
2022/08/09 04:30:58;;;;;;;;;9.00;9.00;;;;;26.47;50.42;100697.59;146624;570;46010;-70
2022/08/09 04:33:52;;;;;;;;;10.50;8.50;;;;;26.55;51.00;100695.75;146624;563;45016;-71
2022/08/09 04:36:48;;;;;;;;;10.50;9.50;;;;;26.65;50.39;100697.38;146630;582;45021;-74
2022/08/09 04:39:51;;;;;;;;;13.25;11.25;;;;;25.79;49.29;100528.50;146625;601;45920;-78
2022/08/09 04:42:43;;;;;;;;;14.00;12.25;;;;;26.93;51.52;100699.59;146631;566;45011;-72
2022/08/09 04:45:39;;;;;;;;;10.00;9.25;;;;;27.08;51.30;100701.13;146621;581;46003;-72
2022/08/09 04:48:32;;;;;;;;;11.75;9.75;;;;;27.24;51.08;100699.97;146629;565;45018;-73
2022/08/09 04:51:26;;;;;;;;;10.25;10.25;;;;;27.44;50.67;100699.59;146618;564;47921;-73
2022/08/09 04:54:24;;;;;;;;;10.00;9.50;;;;;27.71;49.87;100702.66;146627;698;46010;-71
2022/08/09 04:57:27;;;;;;;;;9.75;8.50;;;;;28.02;49.81;100709.16;146623;613;46921;-72
2022/08/09 05:00:27;;;;;;;;;8.00;7.25;;;;;28.36;48.63;100711.09;146629;635;46010;-73
2022/08/09 05:03:23;;;;;;;;;7.00;7.00;;;;;28.66;49.09;100717.56;146624;594;45920;-73
2022/08/09 05:06:15;;;;;;;;;8.25;8.25;;;;;28.92;48.22;100708.03;146629;579;45021;-73
2022/08/09 05:09:13;;;;;;;;;9.25;8.50;;;;;29.21;47.95;100715.31;146625;607;46014;-73
2022/08/09 05:12:14;;;;;;;;;8.50;8.50;;;;;28.74;46.24;100592.81;146631;586;45010;-73
2022/08/09 05:15:15;;;;;;;;;9.00;8.00;;;;;29.75;45.59;100719.25;146626;588;45922;-75
2022/08/09 05:18:28;;;;;;;;;9.50;7.75;;;;;29.04;43.86;100558.25;146626;685;46010;-76
2022/08/09 05:21:46;;;;;;;;;7.75;7.75;;;;;30.22;44.97;100725.03;146627;641;46013;-74
2022/08/09 05:24:43;;;;;;;;;7.00;6.75;;;;;30.45;44.32;100722.53;146626;702;46010;-76
2022/08/09 05:27:40;;;;;;;;;7.75;7.75;;;;;30.65;43.34;100721.03;146628;617;45923;-72
2022/08/09 05:30:39;;;;;;;;;7.00;7.00;;;;;30.82;42.68;100730.31;146628;614;45020;-71
2022/08/09 05:33:46;;;;;;;;;;;;;;;;;;;;;
2022/08/09 05:36:52;;;;;;;;;7.00;7.00;;;;;31.05;41.84;100720.62;146627;730;45020;-72
2022/08/09 05:39:47;;;;;;;;;7.75;7.75;;;;;31.22;42.01;100722.75;146626;571;46010;-71
2022/08/09 05:42:42;;;;;;;;;5.75;5.00;;;;;31.33;41.34;100725.91;146629;681;45011;-71
2022/08/09 05:45:39;;;;;;;;;8.50;7.00;;;;;31.42;40.67;100727.44;146629;577;45010;-71
2022/08/09 05:48:40;;;;;;;;;7.75;6.75;;;;;31.51;40.58;100719.94;146627;566;45021;-70
2022/08/09 05:51:42;;;;;;;;;6.25;6.25;;;;;31.66;40.61;100734.63;146627;563;46012;-72
2022/08/09 05:54:52;;;;;;;;;7.50;7.00;;;;;31.80;39.78;100726.06;146623;578;46020;-74
2022/08/09 05:57:45;;;;;;;;;8.00;7.00;;;;;31.92;40.09;100732.81;146625;674;45923;-74
2022/08/09 06:00:37;;;;;;;;;8.00;7.00;;;;;32.03;39.54;100735.97;146625;595;46010;-75
2022/08/09 06:03:32;;;;;;;;;7.00;6.75;;;;;32.16;38.95;100733.72;146623;574;46017;-74
2022/08/09 06:06:32;;;;;;;;;7.75;7.00;;;;;32.24;38.41;100730.72;146629;678;45020;-74
2022/08/09 06:09:25;;;;;;;;;7.75;7.00;;;;;32.28;37.34;100733.22;146625;571;45921;-74
2022/08/09 06:12:23;;;;;;;;;7.75;6.75;;;;;32.31;37.85;100734.94;146627;570;46010;-70
2022/08/09 06:15:17;;;;;;;;;8.00;7.00;;;;;32.35;37.77;100729.38;146625;604;45016;-76
2022/08/09 06:18:12;;;;;;;;;7.50;7.50;;;;;32.08;37.77;100674.09;146630;570;45927;-73
2022/08/09 06:21:19;;;;;;;;;;;;;;;;;;;;;
2022/08/09 06:24:19;;;;;;;;;6.75;6.00;;;;;32.54;37.33;100737.59;146628;673;45922;-73
2022/08/09 06:27:20;;;;;;;;;4.50;4.50;;;;;32.20;37.71;100670.94;146605;579;46013;-72
2022/08/09 06:30:16;;;;;;;;;7.75;6.75;;;;;32.62;37.03;100730.12;146608;696;46014;-73
2022/08/09 06:33:13;;;;;;;;;6.00;5.75;;;;;32.62;36.70;100743.53;146604;592;46013;-71
2022/08/09 06:36:11;;;;;;;;;5.00;5.00;;;;;32.69;37.26;100736.13;146608;720;46010;-73
2022/08/09 06:39:07;;;;;;;;;7.00;6.00;;;;;32.76;35.71;100724.19;146608;621;46012;-73
2022/08/09 06:42:04;;;;;;;;;6.75;6.25;;;;;32.76;34.50;100729.56;146606;678;46010;-75
2022/08/09 06:44:59;;;;;;;;;6.00;6.00;;;;;32.75;34.85;100730.50;146603;682;46016;-74
2022/08/09 06:47:54;;;;;;;;;5.50;5.50;;;;;32.76;34.72;100734.06;146608;660;47015;-73
2022/08/09 06:50:53;;;;;;;;;7.75;6.75;;;;;32.77;34.58;100733.97;146604;592;46016;-73
2022/08/09 06:53:46;;;;;;;;;6.00;4.25;;;;;32.78;33.96;100732.19;146605;564;46020;-72
2022/08/09 06:56:47;;;;;;;;;7.00;6.25;;;;;32.84;35.00;100723.88;146603;628;46016;-73
2022/08/09 06:59:53;;;;;;;;;;;;;;;;;;;;;
2022/08/09 07:02:52;;;;;;;;;22.50;14.25;;;;;33.14;32.20;100726.25;146604;604;46015;-73
2022/08/09 07:05:45;;;;;;;;;8.00;5.00;;;;;33.30;31.66;100727.31;146604;691;47010;-73
2022/08/09 07:08:39;;;;;;;;;7.00;5.00;;;;;33.38;33.03;100732.37;146608;618;46012;-73
2022/08/09 07:11:35;;;;;;;;;6.00;5.50;;;;;33.47;33.66;100734.66;146602;622;46925;-73
2022/08/09 07:14:52;;;;;;;;;7.00;6.25;;;;;33.58;33.79;100729.72;146603;595;46016;-74
2022/08/09 07:17:47;;;;;;;;;7.00;7.00;;;;;33.68;32.74;100735.56;146608;566;46020;-72
2022/08/09 07:20:43;;;;;;;;;5.00;5.00;;;;;33.77;33.34;100740.50;146602;721;47012;-73
2022/08/09 07:23:40;;;;;;;;;7.50;6.75;;;;;33.85;33.09;100729.44;146607;628;47010;-75
2022/08/09 07:26:32;;;;;;;;;5.75;5.25;;;;;33.94;33.54;100746.00;146609;575;46013;-74
2022/08/09 07:29:38;;;;;;;;;5.00;5.00;;;;;34.08;33.66;100745.41;146611;712;46020;-73
2022/08/09 07:32:34;;;;;;;;;5.75;5.50;;;;;34.25;32.38;100747.31;146607;569;47016;-74
2022/08/09 07:35:27;;;;;;;;;6.00;6.00;;;;;34.43;31.50;100745.59;146612;569;46028;-74
2022/08/09 07:38:24;;;;;;;;;7.25;7.00;;;;;34.09;32.52;100676.34;146609;591;47012;-75
2022/08/09 07:41:21;;;;;;;;;4.00;4.00;;;;;34.47;30.12;100748.03;146614;653;46021;-75
2022/08/09 07:44:25;;;;;;;;;2.25;2.25;;;;;34.60;29.91;100737.59;146610;708;47012;-74
2022/08/09 07:47:17;;;;;;;;;5.75;4.00;;;;;34.79;29.09;100747.47;146613;581;46020;-74
2022/08/09 07:50:28;;;;;;;;;4.25;4.25;;;;;34.98;29.64;100747.41;146612;573;46016;-74
2022/08/09 07:53:23;;;;;;;;;3.25;3.25;;;;;35.10;25.91;100741.44;146615;624;47010;-79
2022/08/09 07:56:24;;;;;;;;;4.25;4.25;;;;;35.13;29.97;100752.94;146609;573;46017;-76
2022/08/09 07:59:19;;;;;;;;;3.75;3.75;;;;;35.22;29.65;100746.22;146611;599;47010;-75
2022/08/09 08:02:12;;;;;;;;;3.75;3.50;;;;;35.36;28.29;100756.28;146609;590;47015;-76
2022/08/09 08:05:10;;;;;;;;;3.25;3.25;;;;;35.52;28.59;100750.97;146616;637;46010;-77
2022/08/09 08:08:07;;;;;;;;;3.25;3.25;;;;;35.63;26.87;100754.00;146609;610;46016;-76
2022/08/09 08:11:01;;;;;;;;;3.00;3.00;;;;;35.71;27.11;100756.31;146610;570;48010;-73
2022/08/09 08:13:59;;;;;;;;;5.75;5.00;;;;;35.73;26.40;100749.84;146613;588;46012;-74
2022/08/09 08:16:57;;;;;;;;;4.50;3.50;;;;;35.78;27.50;100750.50;146615;599;46010;-75
2022/08/09 08:20:10;;;;;;;;;;;;;;;;;;;;;
2022/08/09 08:23:05;;;;;;;;;1.00;1.00;;;;;35.90;24.93;100748.09;146616;591;46020;-76
2022/08/09 08:26:00;;;;;;;;;5.00;4.00;;;;;35.96;25.59;100750.47;146609;569;46921;-76
2022/08/09 08:28:53;;;;;;;;;4.00;4.00;;;;;36.01;26.14;100756.47;146607;643;46014;-76
2022/08/09 08:31:48;;;;;;;;;3.25;3.25;;;;;36.08;24.55;100758.78;146603;699;46038;-75
2022/08/09 08:34:40;;;;;;;;;4.00;4.00;;;;;36.13;25.57;100758.53;146608;577;46010;-75
2022/08/09 08:37:35;;;;;;;;;3.75;3.75;;;;;36.23;26.76;100750.78;146604;553;46016;-75
2022/08/09 08:40:34;;;;;;;;;3.25;3.25;;;;;36.35;25.60;100754.63;146608;572;47011;-75
2022/08/09 08:43:28;;;;;;;;;4.00;4.00;;;;;36.42;24.93;100751.53;146604;644;46921;-75
2022/08/09 08:46:37;;;;;;;;;;;;;;;;;;;;;
2022/08/09 08:49:37;;;;;;;;;6.00;5.00;;;;;36.61;27.15;100748.69;146604;604;46919;-75
2022/08/09 08:52:36;;;;;;;;;4.00;3.00;;;;;36.68;25.77;100747.38;146607;706;46020;-77
2022/08/09 08:55:29;;;;;;;;;2.25;1.75;;;;;36.70;24.80;100745.47;146604;585;46013;-77
2022/08/09 08:58:23;;;;;;;;;6.00;4.75;;;;;36.76;25.36;100741.50;146607;580;46020;-78
2022/08/09 09:01:18;;;;;;;;;4.00;4.00;;;;;36.86;26.21;100742.72;146603;567;46017;-78
2022/08/09 09:04:13;;;;;;;;;4.50;4.50;;;;;36.95;26.05;100742.19;146606;640;46020;-78
2022/08/09 09:07:16;;;;;;;;;5.50;4.50;;;;;37.08;26.36;100736.97;146604;662;46016;-80
2022/08/09 09:10:15;;;;;;;;;6.00;4.75;;;;;37.19;24.84;100737.19;146607;582;46010;-79
2022/08/09 09:13:13;;;;;;;;;5.50;5.50;;;;;37.22;23.57;100747.81;146605;667;46016;-80
2022/08/09 09:16:23;;;;;;;;;3.00;3.00;;;;;37.19;24.61;100748.00;146609;573;46011;-80
2022/08/09 09:19:19;;;;;;;;;4.00;3.00;;;;;37.23;24.90;100735.19;146605;597;46016;-80
2022/08/09 09:22:14;;;;;;;;;4.25;4.25;;;;;37.32;23.58;100739.13;146607;654;47010;-78
2022/08/09 09:25:07;;;;;;;;;5.25;4.50;;;;;37.33;22.65;100733.66;146602;702;46017;-77
2022/08/09 09:28:02;;;;;;;;;4.50;4.25;;;;;37.35;24.88;100747.94;146604;591;46020;-78
2022/08/09 09:31:00;;;;;;;;;2.00;2.00;;;;;37.43;24.84;100739.38;146603;630;46017;-79
2022/08/09 09:33:55;;;;;;;;;4.50;4.00;;;;;37.31;20.24;100740.12;146604;575;46021;-79
2022/08/09 09:36:47;;;;;;;;;5.00;4.25;;;;;36.68;22.37;100669.03;146606;693;46016;-80
2022/08/09 09:39:56;;;;;;;;;5.50;5.50;;;;;36.94;22.17;100729.63;146608;687;46010;-80
2022/08/09 09:43:02;;;;;;;;;4.50;4.50;;;;;36.87;25.24;100733.66;146606;566;46016;-80
2022/08/09 09:45:57;;;;;;;;;6.00;5.00;;;;;36.90;23.78;100735.31;146608;636;46010;-80
2022/08/09 09:49:11;;;;;;;;;5.00;5.00;;;;;37.01;26.95;100726.59;146605;613;46014;-80
2022/08/09 09:52:12;;;;;;;;;5.50;5.00;;;;;37.13;25.50;100729.44;146607;564;46020;-80
2022/08/09 09:55:10;;;;;;;;;6.00;6.00;;;;;37.29;23.18;100725.81;146606;573;46034;-80
2022/08/09 09:58:11;;;;;;;;;5.25;5.25;;;;;37.42;24.52;100737.66;146604;582;47010;-79
2022/08/09 10:01:03;;;;;;;;;7.25;6.25;;;;;37.54;22.87;100730.62;146605;594;46017;-79
2022/08/09 10:03:59;;;;;;;;;6.25;4.25;;;;;37.60;23.08;100728.44;146606;586;46020;-79
2022/08/09 10:06:52;;;;;;;;;7.75;6.00;;;;;37.66;21.35;100719.91;146605;679;46016;-79
2022/08/09 10:10:16;;;;;;;;;4.75;4.75;;;;;36.95;26.12;100595.38;146607;621;46021;-79
2022/08/09 10:13:08;;;;;;;;;4.00;4.00;;;;;37.72;22.31;100712.38;146603;579;46016;-79
2022/08/09 10:16:01;;;;;;;;;9.00;6.25;;;;;37.74;22.44;100714.03;146604;613;47011;-79
2022/08/09 10:19:10;;;;;;;;;5.00;5.00;;;;;37.76;23.19;100704.00;146603;588;46016;-79
2022/08/09 10:22:04;;;;;;;;;4.00;4.00;;;;;37.67;23.09;100710.84;146606;579;46020;-78
2022/08/09 10:25:13;;;;;;;;;5.75;5.00;;;;;37.68;22.68;100706.31;146605;583;46923;-78
2022/08/09 10:28:06;;;;;;;;;6.75;5.00;;;;;37.47;22.43;100656.25;146627;575;44923;-80
2022/08/09 10:31:04;;;;;;;;;6.75;5.00;;;;;37.80;22.04;100696.56;146626;624;45017;-80
2022/08/09 10:33:56;;;;;;;;;2.25;2.25;;;;;37.80;21.90;100691.13;146625;565;45922;-79
2022/08/09 10:36:55;;;;;;;;;4.50;4.50;;;;;37.86;22.10;100697.03;146626;606;46010;-78
2022/08/09 10:39:49;;;;;;;;;5.75;4.50;;;;;37.95;20.93;100702.88;146627;620;45020;-79
2022/08/09 10:42:50;;;;;;;;;4.00;3.75;;;;;37.97;22.04;100695.50;146623;589;46012;-80
2022/08/09 10:45:49;;;;;;;;;4.75;4.75;;;;;37.97;24.31;100684.66;146625;655;46020;-82
2022/08/09 10:49:20;;;;;;;;;4.75;4.50;;;;;37.98;22.62;100697.22;146627;680;45016;-79
2022/08/09 10:52:45;;;;;;;;;5.75;5.25;;;;;38.02;24.83;100690.66;146627;580;45030;-79
2022/08/09 10:55:47;;;;;;;;;4.25;4.00;;;;;38.10;21.89;100686.50;146624;628;45016;-79
2022/08/09 11:03:01;;;;;;;;;5.75;5.75;;;;;38.08;22.22;100680.31;146704;566;46022;-80
2022/08/09 11:06:24;;;;;;;;;6.00;5.50;;;;;38.02;23.00;100690.66;146619;637;46016;-79
2022/08/09 11:09:45;;;;;;;;;5.00;5.00;;;;;37.93;22.10;100675.03;146623;604;46010;-79
2022/08/09 11:13:09;;;;;;;;;3.00;3.00;;;;;37.62;25.06;100622.81;146614;676;46014;-78
2022/08/09 11:16:39;;;;;;;;;4.75;4.75;;;;;37.94;24.02;100668.63;146615;593;48010;-80
2022/08/09 11:20:19;;;;;;;;;6.50;4.25;;;;;37.91;24.35;100661.53;146615;627;46017;-82
2022/08/09 11:23:39;;;;;;;;;4.75;4.75;;;;;37.95;22.87;100657.72;146621;652;46020;-77
2022/08/09 11:26:49;;;;;;;;;5.50;5.50;;;;;38.00;23.54;100662.81;146614;592;46016;-80
2022/08/09 11:30:09;;;;;;;;;5.75;5.50;;;;;38.06;24.73;100667.84;146620;565;46010;-77
2022/08/09 11:33:41;;;;;;;;;5.75;4.50;;;;;38.06;23.79;100663.28;146616;609;46012;-81
2022/08/09 11:36:44;;;;;;;;;6.00;5.25;;;;;38.10;22.80;100654.03;146624;620;46023;-79
2022/08/09 11:40:20;;;;;;;;;7.25;6.50;;;;;38.19;22.64;100655.22;146614;577;46012;-74
2022/08/09 11:43:15;;;;;;;;;5.50;4.75;;;;;38.25;20.64;100645.84;146621;572;46021;-80
2022/08/09 11:46:10;;;;;;;;;4.75;3.50;;;;;38.32;22.08;100641.75;146613;608;46016;-75
2022/08/09 11:49:07;;;;;;;;;3.00;3.00;;;;;38.34;22.87;100637.97;146618;658;46015;-75
2022/08/09 11:52:13;;;;;;;;;5.75;5.50;;;;;38.31;23.37;100648.16;146616;622;46016;-78
2022/08/09 11:55:36;;;;;;;;;4.25;4.25;;;;;38.29;20.38;100637.44;146617;581;46029;-80
2022/08/09 11:58:52;;;;;;;;;4.00;3.75;;;;;38.25;23.60;100632.31;146614;612;46034;-75
2022/08/09 12:01:52;;;;;;;;;6.00;5.25;;;;;38.27;21.43;100624.97;146620;692;46020;-78
2022/08/09 12:04:55;;;;;;;;;4.25;4.25;;;;;38.25;22.47;100637.72;146614;618;46912;-79
2022/08/09 12:07:51;;;;;;;;;5.50;5.00;;;;;38.24;20.92;100654.94;146624;575;46010;-79
2022/08/09 12:11:00;;;;;;;;;5.75;4.75;;;;;38.19;21.80;100647.09;146615;569;46017;-81
2022/08/09 12:14:19;;;;;;;;;6.50;4.50;;;;;38.16;20.14;100638.31;146620;573;46020;-80
2022/08/09 12:17:28;;;;;;;;;4.75;4.75;;;;;38.09;23.01;100635.16;146612;563;46016;-78
2022/08/09 12:20:33;;;;;;;;;4.25;4.25;;;;;38.02;19.46;100631.97;146619;579;46010;-76
2022/08/09 12:23:41;;;;;;;;;;;;;;;;;;;;;
2022/08/09 12:26:58;;;;;;;;;5.50;4.00;;;;;37.74;20.66;100640.13;146623;564;46012;-73
2022/08/09 12:30:02;;;;;;;;;4.00;3.25;;;;;37.67;19.50;100616.16;146616;577;46914;-76
2022/08/09 12:33:05;;;;;;;;;4.75;3.75;;;;;37.63;19.53;100619.13;146617;604;46014;-73
2022/08/09 12:36:23;;;;;;;;;6.00;5.00;;;;;37.21;22.93;100554.12;146611;600;46016;-76
2022/08/09 12:39:31;;;;;;;;;5.00;5.00;;;;;37.74;23.32;100638.28;146619;582;46020;-77
2022/08/09 12:42:55;;;;;;;;;5.00;5.00;;;;;37.83;21.92;100634.13;146614;663;46016;-77
2022/08/09 12:45:53;;;;;;;;;4.50;4.50;;;;;37.85;21.20;100633.06;146618;603;46020;-76
2022/08/09 12:48:49;;;;;;;;;4.50;4.50;;;;;37.94;21.62;100625.31;146614;579;46016;-77
2022/08/09 12:51:57;;;;;;;;;5.50;4.50;;;;;37.97;21.95;100609.75;146620;563;46020;-81
2022/08/09 12:55:09;;;;;;;;;5.00;5.00;;;;;38.00;19.30;100601.44;146616;580;46016;-77
2022/08/09 12:58:14;;;;;;;;;6.00;5.00;;;;;37.68;20.42;100554.78;146615;579;46010;-73
2022/08/09 13:01:47;;;;;;;;;5.75;5.75;;;;;37.95;22.06;100595.47;146610;629;46016;-76
2022/08/09 13:05:04;;;;;;;;;6.25;6.25;;;;;37.90;19.54;100592.16;146623;723;46011;-77
2022/08/09 13:08:19;;;;;;;;;5.25;5.00;;;;;37.87;22.67;100604.03;146613;580;46016;-78
2022/08/09 13:11:15;;;;;;;;;5.00;5.00;;;;;37.83;19.25;100601.62;146618;573;46011;-78
2022/08/09 13:14:11;;;;;;;;;7.25;5.75;;;;;37.76;20.74;100601.16;146614;623;46016;-74
2022/08/09 13:17:28;;;;;;;;;7.50;6.00;;;;;37.78;22.19;100601.06;146620;605;46020;-75
2022/08/09 13:20:47;;;;;;;;;6.00;5.25;;;;;37.70;19.86;100601.56;146615;597;46914;-77
2022/08/09 13:23:48;;;;;;;;;4.50;3.75;;;;;37.35;20.35;100590.22;146617;615;46020;-78
2022/08/09 13:26:58;;;;;;;;;7.00;6.00;;;;;36.95;20.61;100606.19;146612;740;46013;-80
2022/08/09 13:30:08;;;;;;;;;5.25;5.25;;;;;36.04;21.10;100511.59;146618;626;46010;-73
2022/08/09 13:33:06;;;;;;;;;5.00;4.75;;;;;36.02;20.60;100589.09;146614;630;46016;-77
2022/08/09 13:36:04;;;;;;;;;6.25;5.25;;;;;35.77;21.05;100592.28;146620;581;46027;-74
2022/08/09 13:38:59;;;;;;;;;3.00;3.00;;;;;35.55;21.59;100597.13;146616;615;46016;-74
2022/08/09 13:42:01;;;;;;;;;5.00;5.00;;;;;35.50;21.98;100601.88;146621;593;46021;-78
2022/08/09 13:44:54;;;;;;;;;5.75;4.75;;;;;35.52;23.08;100603.53;146607;573;47016;-76
2022/08/09 13:47:48;;;;;;;;;7.25;7.25;;;;;35.56;21.81;100606.97;146617;626;46011;-76
2022/08/09 13:50:41;;;;;;;;;6.25;5.00;;;;;35.66;23.30;100600.09;146618;573;46012;-75
2022/08/09 13:53:37;;;;;;;;;7.00;6.25;;;;;35.63;22.10;100605.66;146623;582;46020;-75
2022/08/09 13:56:38;;;;;;;;;6.00;6.00;;;;;35.56;23.27;100607.81;146617;569;46017;-74
2022/08/09 13:59:40;;;;;;;;;;;;;;;;;;;;;
2022/08/09 14:02:38;;;;;;;;;7.25;7.25;;;;;35.50;22.95;100613.53;146612;584;46013;-78
2022/08/09 14:05:48;;;;;;;;;;;;;;;;;;;;;
2022/08/09 14:08:52;;;;;;;;;5.00;4.00;;;;;35.72;22.92;100590.78;146613;684;46012;-76
2022/08/09 14:11:49;;;;;;;;;7.00;6.25;;;;;35.83;22.54;100597.34;146624;575;46020;-76
2022/08/09 14:15:07;;;;;;;;;9.25;8.25;;;;;35.84;23.69;100585.59;146611;570;46016;-75
2022/08/09 14:18:00;;;;;;;;;6.25;6.25;;;;;35.78;23.87;100593.16;146624;597;46020;-77
2022/08/09 14:21:04;;;;;;;;;;;;;;;;;;;;;
2022/08/09 14:24:01;;;;;;;;;5.50;5.50;;;;;35.74;23.91;100588.91;146618;566;46015;-78
2022/08/09 14:27:05;;;;;;;;;6.25;6.25;;;;;35.72;24.21;100593.50;146609;649;48915;-79
2022/08/09 14:30:00;;;;;;;;;6.00;6.00;;;;;35.70;24.41;100596.25;146621;577;46020;-77